createdAt,value
2023-04-24T00:00:15.816Z,100.00
2023-04-24T00:03:22.122Z,100.00
2023-04-24T00:06:25.543Z,100.00
2023-04-24T00:09:29.091Z,100.00
2023-04-24T00:12:33.471Z,100.00
2023-04-24T00:15:37.019Z,100.00
2023-04-24T00:18:40.694Z,100.00
2023-04-24T00:21:43.756Z,100.00
2023-04-24T00:24:46.759Z,100.00
2023-04-24T00:27:51.373Z,100.00
2023-04-24T00:30:54.781Z,100.00
2023-04-24T00:33:58.261Z,100.00
2023-04-24T00:37:01.273Z,100.00
2023-04-24T00:40:05.619Z,100.00
2023-04-24T00:43:10.853Z,100.00
2023-04-24T00:46:14.659Z,100.00
2023-04-24T00:49:17.865Z,100.00
2023-04-24T00:52:21.631Z,100.00
2023-04-24T00:55:24.860Z,100.00
2023-04-24T00:58:30.078Z,100.00
2023-04-24T01:01:33.708Z,100.00
2023-04-24T01:04:37.324Z,100.00
2023-04-24T01:07:44.972Z,100.00
2023-04-24T01:10:51.914Z,100.00
2023-04-24T01:13:57.480Z,100.00
2023-04-24T01:17:01.325Z,100.00
2023-04-24T01:20:07.121Z,100.00
2023-04-24T01:23:18.804Z,100.00
2023-04-24T01:26:22.282Z,100.00
2023-04-24T01:29:25.825Z,100.00
2023-04-24T01:32:29.918Z,100.00
2023-04-24T01:35:38.311Z,100.00
2023-04-24T01:38:42.757Z,100.00
2023-04-24T01:41:45.920Z,100.00
2023-04-24T01:44:49.648Z,100.00
2023-04-24T01:47:52.849Z,100.00
2023-04-24T01:50:56.099Z,100.00
2023-04-24T01:54:00.433Z,100.00
2023-04-24T01:57:03.929Z,100.00
2023-04-24T02:00:09.097Z,100.00
2023-04-24T02:03:18.424Z,100.00
2023-04-24T02:06:21.534Z,100.00
2023-04-24T02:09:25.890Z,100.00
2023-04-24T02:12:29.017Z,100.00
2023-04-24T02:15:32.148Z,100.00
2023-04-24T02:18:35.172Z,100.00
2023-04-24T02:21:38.353Z,100.00
2023-04-24T02:24:43.554Z,100.00
2023-04-24T02:27:49.680Z,100.00
2023-04-24T02:30:52.823Z,100.00
2023-04-24T02:33:59.079Z,100.00
2023-04-24T02:37:02.127Z,100.00
2023-04-24T02:40:09.664Z,100.00
2023-04-24T02:43:12.695Z,100.00
2023-04-24T02:46:15.792Z,100.00
2023-04-24T02:49:19.203Z,100.00
2023-04-24T02:52:22.201Z,100.00
2023-04-24T02:55:26.940Z,100.00
2023-04-24T02:58:29.962Z,100.00
2023-04-24T03:01:33.051Z,100.00
2023-04-24T03:04:36.390Z,100.00
2023-04-24T03:07:39.665Z,100.00
2023-04-24T03:10:45.229Z,100.00
2023-04-24T03:13:49.304Z,100.00
2023-04-24T03:16:55.633Z,100.00
2023-04-24T03:19:58.682Z,100.00
2023-04-24T03:23:04.428Z,100.00
2023-04-24T03:26:11.812Z,100.00
2023-04-24T03:29:21.908Z,100.00
2023-04-24T03:32:25.850Z,100.00
2023-04-24T03:35:29.467Z,100.00
2023-04-24T03:38:39.216Z,100.00
2023-04-24T03:41:57.075Z,100.00
2023-04-24T03:45:09.813Z,100.00
2023-04-24T03:48:15.640Z,100.00
2023-04-24T03:51:18.660Z,100.00
2023-04-24T03:54:23.759Z,100.00
2023-04-24T03:57:30.990Z,100.00
2023-04-24T04:00:50.741Z,100.00
2023-04-24T04:04:14.314Z,100.00
2023-04-24T04:07:17.906Z,100.00
2023-04-24T04:10:23.903Z,100.00
2023-04-24T04:13:28.231Z,100.00
2023-04-24T04:16:34.192Z,100.00
2023-04-24T04:19:43.298Z,100.00
2023-04-24T04:22:47.521Z,100.00
2023-04-24T04:25:57.084Z,100.00
2023-04-24T04:29:11.362Z,100.00
2023-04-24T04:32:18.562Z,100.00
2023-04-24T04:35:23.161Z,100.00
2023-04-24T04:38:30.884Z,100.00
2023-04-24T04:41:43.332Z,100.00
2023-04-24T04:44:48.734Z,100.00
2023-04-24T04:47:57.128Z,100.00
2023-04-24T04:51:03.029Z,100.00
2023-04-24T04:54:06.429Z,100.00
2023-04-24T04:57:10.021Z,100.00
2023-04-24T05:00:16.655Z,100.00
2023-04-24T05:03:26.094Z,100.00
2023-04-24T05:06:35.066Z,100.00
2023-04-24T05:09:38.434Z,100.00
2023-04-24T05:12:45.713Z,100.00
2023-04-24T05:15:50.984Z,100.00
2023-04-24T05:18:54.731Z,100.00
2023-04-24T05:22:06.269Z,100.00
2023-04-24T05:25:11.248Z,100.00
2023-04-24T05:28:19.864Z,100.00
2023-04-24T05:31:32.164Z,100.00
2023-04-24T05:34:35.293Z,100.00
2023-04-24T05:37:38.341Z,100.00
2023-04-24T05:40:42.216Z,100.00
2023-04-24T05:43:45.246Z,100.00
2023-04-24T05:46:49.672Z,100.00
2023-04-24T05:49:53.491Z,100.00
2023-04-24T05:52:59.150Z,100.00
2023-04-24T06:01:33.632Z,100.00
2023-04-24T06:04:47.508Z,100.00
2023-04-24T06:07:50.994Z,100.00
2023-04-24T06:10:54.454Z,100.00
2023-04-24T06:13:58.785Z,100.00
2023-04-24T06:17:24.411Z,100.00
2023-04-24T06:20:30.038Z,100.00
2023-04-24T06:23:33.858Z,100.00
2023-04-24T06:26:37.382Z,100.00
2023-04-24T06:29:40.693Z,100.00
2023-04-24T06:32:43.792Z,100.00
2023-04-24T06:35:48.547Z,100.00
2023-04-24T06:38:51.669Z,100.00
2023-04-24T06:41:54.729Z,100.00
2023-04-24T06:44:57.714Z,100.00
2023-04-24T06:48:00.829Z,100.00
2023-04-24T06:51:05.273Z,100.00
2023-04-24T06:54:08.250Z,100.00
2023-04-24T06:57:11.498Z,100.00
2023-04-24T07:00:15.983Z,100.00
2023-04-24T07:03:19.061Z,100.00
2023-04-24T07:06:25.270Z,100.00
2023-04-24T07:09:29.530Z,100.00
2023-04-24T07:12:33.421Z,100.00
2023-04-24T07:15:36.589Z,100.00
2023-04-24T07:18:40.879Z,100.00
2023-04-24T07:21:45.685Z,100.00
2023-04-24T07:24:48.686Z,100.00
2023-04-24T07:27:51.679Z,100.00
2023-04-24T07:30:55.561Z,100.00
2023-04-24T07:33:59.236Z,100.00
2023-04-24T07:37:04.157Z,100.00
2023-04-24T07:40:09.122Z,100.00
2023-04-24T07:43:12.122Z,100.00
2023-04-24T07:46:15.222Z,100.00
2023-04-24T07:49:19.904Z,100.00
2023-04-24T07:52:25.241Z,100.00
2023-04-24T07:55:28.492Z,100.00
2023-04-24T07:58:31.796Z,100.00
2023-04-24T08:01:34.860Z,100.00
2023-04-24T08:04:38.146Z,100.00
2023-04-24T08:07:47.382Z,100.00
2023-04-24T08:10:50.661Z,100.00
2023-04-24T08:13:53.867Z,100.00
2023-04-24T08:16:57.832Z,100.00
2023-04-24T08:20:03.588Z,100.00
2023-04-24T08:23:09.209Z,100.00
2023-04-24T08:26:14.875Z,100.00
2023-04-24T08:29:18.068Z,100.00
2023-04-24T08:32:21.096Z,100.00
2023-04-24T08:35:24.203Z,100.00
2023-04-24T08:38:28.480Z,100.00
2023-04-24T08:41:33.080Z,100.00
2023-04-24T08:44:37.830Z,100.00
2023-04-24T08:47:42.186Z,100.00
2023-04-24T08:50:46.511Z,100.00
2023-04-24T08:53:51.433Z,100.00
2023-04-24T08:57:01.962Z,100.00
2023-04-24T09:00:06.952Z,100.00
2023-04-24T09:03:10.486Z,100.00
2023-04-24T09:06:13.795Z,100.00
2023-04-24T09:09:19.587Z,100.00
2023-04-24T09:12:24.973Z,100.00
2023-04-24T09:15:28.206Z,100.00
2023-04-24T09:18:31.247Z,100.00
2023-04-24T09:21:35.361Z,100.00
2023-04-24T09:24:44.354Z,100.00
2023-04-24T09:27:47.801Z,100.00
2023-04-24T09:31:05.311Z,100.00
2023-04-24T09:34:08.595Z,100.00
2023-04-24T09:37:11.858Z,100.00
2023-04-24T09:40:19.681Z,100.00
2023-04-24T09:43:23.888Z,100.00
2023-04-24T09:46:34.697Z,100.00
2023-04-24T09:49:40.233Z,100.00
2023-04-24T09:52:48.921Z,100.00
2023-04-24T09:55:54.122Z,100.00
2023-04-24T09:58:57.236Z,100.00
2023-04-24T10:02:01.768Z,100.00
2023-04-24T10:05:05.692Z,100.00
2023-04-24T10:08:11.114Z,100.00
2023-04-24T10:11:15.934Z,100.00
2023-04-24T10:14:23.237Z,100.00
2023-04-24T10:17:27.912Z,100.00
2023-04-24T10:20:32.500Z,100.00
2023-04-24T10:23:36.547Z,100.00
2023-04-24T10:26:44.380Z,100.00
2023-04-24T10:29:49.191Z,100.00
2023-04-24T10:32:52.752Z,100.00
2023-04-24T10:35:57.367Z,100.00
2023-04-24T10:39:04.517Z,100.00
2023-04-24T10:42:18.124Z,100.00
2023-04-24T10:45:23.035Z,100.00
2023-04-24T10:48:29.303Z,100.00
2023-04-24T10:51:48.905Z,100.00
2023-04-24T10:54:53.510Z,100.00
2023-04-24T10:58:07.272Z,100.00
2023-04-24T11:01:10.668Z,100.00
2023-04-24T11:04:13.826Z,100.00
2023-04-24T11:07:18.170Z,100.00
2023-04-24T11:10:28.015Z,100.00
2023-04-24T11:14:07.369Z,100.00
2023-04-24T11:17:11.256Z,100.00
2023-04-24T11:23:28.463Z,100.00
2023-04-24T11:26:33.458Z,100.00
2023-04-24T11:29:51.248Z,100.00
2023-04-24T11:32:54.686Z,100.00
2023-04-24T11:35:57.825Z,100.00
2023-04-24T11:39:00.922Z,100.00
2023-04-24T11:42:07.200Z,100.00
2023-04-24T11:45:15.551Z,100.00
2023-04-24T11:48:23.742Z,100.00
2023-04-24T11:51:31.155Z,100.00
2023-04-24T11:54:39.484Z,100.00
2023-04-24T11:57:45.994Z,100.00
2023-04-24T12:00:59.433Z,100.00
2023-04-24T12:04:02.944Z,100.00
2023-04-24T12:07:06.977Z,100.00
2023-04-24T12:10:11.109Z,100.00
2023-04-24T12:13:15.367Z,100.00
2023-04-24T12:16:19.895Z,100.00
2023-04-24T12:19:24.391Z,100.00
2023-04-24T12:22:28.087Z,100.00
2023-04-24T12:25:33.291Z,100.00
2023-04-24T12:28:38.133Z,100.00
2023-04-24T12:31:42.963Z,100.00
2023-04-24T12:34:46.906Z,100.00
2023-04-24T12:37:50.559Z,100.00
2023-04-24T12:41:05.838Z,100.00
2023-04-24T12:44:14.063Z,100.00
2023-04-24T12:47:18.467Z,100.00
2023-04-24T12:50:21.685Z,100.00
2023-04-24T12:53:27.615Z,100.00
2023-04-24T12:56:33.781Z,100.00
2023-04-24T12:59:36.917Z,89.00
2023-04-24T13:02:43.881Z,90.62
2023-04-24T13:05:47.203Z,84.06
2023-04-24T13:08:50.361Z,86.02
2023-04-24T13:11:53.496Z,82.44
2023-04-24T13:14:56.796Z,82.72
2023-04-24T13:18:01.489Z,71.49
2023-04-24T13:21:05.074Z,65.97
2023-04-24T13:24:08.825Z,68.11
2023-04-24T13:27:11.803Z,72.67
2023-04-24T13:30:15.804Z,67.48
2023-04-24T13:33:20.560Z,63.45
2023-04-24T13:36:23.592Z,62.00
2023-04-24T13:39:27.582Z,60.89
2023-04-24T13:42:30.957Z,59.52
2023-04-24T13:45:45.423Z,55.37
2023-04-24T13:49:10.148Z,49.75
2023-04-24T13:52:13.283Z,53.60
2023-04-24T13:55:16.882Z,52.75
2023-04-24T13:58:19.993Z,53.79
2023-04-24T14:01:25.194Z,48.18
2023-04-24T14:04:29.902Z,51.66
2023-04-24T14:07:33.162Z,53.05
2023-04-24T14:10:36.253Z,53.17
2023-04-24T14:13:39.525Z,51.32
2023-04-24T14:16:42.555Z,52.11
2023-04-24T14:19:47.046Z,52.74
2023-04-24T14:22:50.057Z,53.11
2023-04-24T14:25:53.495Z,54.66
2023-04-24T14:29:03.967Z,52.72
2023-04-24T14:32:10.604Z,57.79
2023-04-24T14:35:15.606Z,57.48
2023-04-24T14:38:18.664Z,54.66
2023-04-24T14:41:21.675Z,52.81
2023-04-24T14:44:25.291Z,49.92
2023-04-24T14:47:28.534Z,52.03
2023-04-24T14:50:33.054Z,54.07
2023-04-24T14:53:38.740Z,54.35
2023-04-24T14:56:43.691Z,55.04
2023-04-24T14:59:46.689Z,53.46
2023-04-24T15:02:49.870Z,52.12
2023-04-24T15:05:54.715Z,50.81
2023-04-24T15:08:57.704Z,54.53
2023-04-24T15:12:00.949Z,53.72
2023-04-24T15:15:08.894Z,55.29
2023-04-24T15:18:12.727Z,56.31
2023-04-24T15:21:17.522Z,57.01
2023-04-24T15:24:21.210Z,60.76
2023-04-24T15:27:25.538Z,61.57
2023-04-24T15:30:28.839Z,58.55
2023-04-24T15:33:31.881Z,55.32
2023-04-24T15:36:36.335Z,54.26
2023-04-24T15:39:40.254Z,56.07
2023-04-24T15:42:44.712Z,57.76
2023-04-24T15:45:47.903Z,58.47
2023-04-24T15:48:52.011Z,62.14
2023-04-24T15:51:56.556Z,60.43
2023-04-24T15:54:59.991Z,59.98
2023-04-24T15:58:04.565Z,63.74
2023-04-24T16:01:07.893Z,63.41
2023-04-24T16:04:11.379Z,69.91
2023-04-24T16:07:18.701Z,65.73
2023-04-24T16:10:21.835Z,68.46
2023-04-24T16:13:25.009Z,69.64
2023-04-24T16:16:29.076Z,67.61
2023-04-24T16:19:33.912Z,73.53
2023-04-24T16:22:41.727Z,70.85
2023-04-24T16:25:44.847Z,72.66
2023-04-24T16:28:48.131Z,72.71
2023-04-24T16:31:51.580Z,72.26
2023-04-24T16:34:54.873Z,71.12
2023-04-24T16:37:59.339Z,72.40
2023-04-24T16:41:02.787Z,75.07
2023-04-24T16:44:05.912Z,77.28
2023-04-24T16:47:09.663Z,79.89
2023-04-24T16:50:13.390Z,81.89
2023-04-24T16:53:17.792Z,80.04
2023-04-24T16:56:20.916Z,80.21
2023-04-24T16:59:24.644Z,88.58
2023-04-24T17:02:29.151Z,95.79
2023-04-24T17:05:35.538Z,97.22
2023-04-24T17:08:39.944Z,97.67
2023-04-24T17:11:43.218Z,100.00
2023-04-24T17:14:46.380Z,100.00
2023-04-24T17:17:51.102Z,100.00
2023-04-24T17:20:54.233Z,100.00
2023-04-24T17:23:58.595Z,100.00
2023-04-24T17:27:13.823Z,100.00
2023-04-24T17:30:18.042Z,100.00
2023-04-24T17:33:21.205Z,100.00
2023-04-24T17:36:24.801Z,100.00
2023-04-24T17:39:29.382Z,100.00
2023-04-24T17:42:32.435Z,100.00
2023-04-24T17:45:36.945Z,100.00
2023-04-24T17:48:40.115Z,100.00
2023-04-24T17:51:43.285Z,100.00
2023-04-24T17:54:49.651Z,100.00
2023-04-24T17:57:52.816Z,100.00
2023-04-24T18:00:57.237Z,100.00
2023-04-24T18:04:01.810Z,100.00
2023-04-24T18:07:05.116Z,100.00
2023-04-24T18:10:10.553Z,100.00
2023-04-24T18:13:13.802Z,100.00
2023-04-24T18:16:16.857Z,100.00
2023-04-24T18:19:19.895Z,100.00
2023-04-24T18:22:23.280Z,100.00
2023-04-24T18:25:28.246Z,100.00
2023-04-24T18:28:34.558Z,100.00
2023-04-24T18:31:37.786Z,100.00
2023-04-24T18:34:41.084Z,100.00
2023-04-24T18:37:45.424Z,100.00
2023-04-24T18:40:49.975Z,100.00
2023-04-24T18:43:53.476Z,100.00
2023-04-24T18:46:56.993Z,100.00
2023-04-24T18:50:00.610Z,100.00
2023-04-24T18:53:03.777Z,100.00
2023-04-24T18:56:08.312Z,100.00
2023-04-24T18:59:11.468Z,100.00
2023-04-24T19:02:15.389Z,100.00
2023-04-24T19:05:18.663Z,100.00
2023-04-24T19:08:21.667Z,100.00
2023-04-24T19:11:26.059Z,100.00
2023-04-24T19:14:29.827Z,100.00
2023-04-24T19:17:35.587Z,100.00
2023-04-24T19:20:40.126Z,100.00
2023-04-24T19:27:58.096Z,100.00
2023-04-24T19:31:10.914Z,100.00
2023-04-24T19:34:26.291Z,100.00
2023-04-24T19:37:32.162Z,100.00
2023-04-24T19:40:35.340Z,100.00
2023-04-24T19:43:39.750Z,100.00
2023-04-24T19:46:43.068Z,100.00
2023-04-24T19:50:24.801Z,100.00
2023-04-24T19:54:27.713Z,100.00
2023-04-24T19:58:36.271Z,100.00
2023-04-24T20:01:47.165Z,100.00
2023-04-24T20:05:02.450Z,100.00
2023-04-24T20:08:06.144Z,100.00
2023-04-24T20:11:09.768Z,100.00
2023-04-24T20:14:14.294Z,100.00
2023-04-24T20:17:19.241Z,100.00
2023-04-24T20:20:48.818Z,100.00
2023-04-24T20:24:04.627Z,100.00
2023-04-24T20:27:09.568Z,100.00
2023-04-24T20:30:13.856Z,100.00
2023-04-24T20:33:18.834Z,100.00
2023-04-24T20:36:21.918Z,100.00
2023-04-24T20:39:31.358Z,100.00
2023-04-24T20:42:36.754Z,100.00
2023-04-24T20:45:40.346Z,100.00
2023-04-24T20:48:44.743Z,100.00
2023-04-24T20:51:47.862Z,100.00
2023-04-24T20:54:52.944Z,100.00
2023-04-24T20:58:00.540Z,100.00
2023-04-24T21:01:06.095Z,100.00
2023-04-24T21:09:27.551Z,100.00
2023-04-24T21:20:00.275Z,100.00
2023-04-24T21:23:24.163Z,100.00
2023-04-24T21:26:40.587Z,100.00
2023-04-24T21:29:49.827Z,100.00
2023-04-24T21:32:54.312Z,100.00
2023-04-24T21:35:58.442Z,100.00
2023-04-24T21:39:18.255Z,100.00
2023-04-24T21:42:22.892Z,100.00
2023-04-24T21:45:27.453Z,100.00
2023-04-24T21:48:33.516Z,100.00
2023-04-24T21:51:59.963Z,100.00
2023-04-24T21:55:11.127Z,100.00
2023-04-24T21:58:22.501Z,100.00
2023-04-24T22:01:31.217Z,100.00
2023-04-24T22:04:34.833Z,100.00
2023-04-24T22:07:39.002Z,100.00
2023-04-24T22:10:42.390Z,100.00
2023-04-24T22:13:49.536Z,100.00
2023-04-24T22:16:52.804Z,100.00
2023-04-24T22:19:59.825Z,100.00
2023-04-24T22:23:06.174Z,100.00
2023-04-24T22:26:09.430Z,100.00
2023-04-24T22:29:26.038Z,100.00
2023-04-24T22:32:33.135Z,100.00
2023-04-24T22:35:51.122Z,100.00
2023-04-24T22:39:02.439Z,100.00
2023-04-24T22:42:06.532Z,100.00
2023-04-24T22:45:23.908Z,100.00
2023-04-24T22:48:28.154Z,100.00
2023-04-24T22:51:33.486Z,100.00
2023-04-24T22:54:36.511Z,100.00
2023-04-24T22:57:52.795Z,100.00
2023-04-24T23:01:24.346Z,100.00
2023-04-24T23:04:30.464Z,100.00
2023-04-24T23:08:04.270Z,100.00
2023-04-24T23:11:11.555Z,100.00
2023-04-24T23:14:16.834Z,100.00
2023-04-24T23:17:21.781Z,100.00
2023-04-24T23:20:28.045Z,100.00
2023-04-24T23:23:31.552Z,100.00
2023-04-24T23:26:39.155Z,100.00
2023-04-24T23:29:47.295Z,100.00
2023-04-24T23:32:51.786Z,100.00
2023-04-24T23:35:57.016Z,100.00
2023-04-24T23:39:00.744Z,100.00
2023-04-24T23:42:04.367Z,100.00
2023-04-24T23:45:10.779Z,100.00
2023-04-24T23:48:15.384Z,100.00
2023-04-24T23:51:19.258Z,100.00
2023-04-24T23:54:26.682Z,100.00
2023-04-24T23:57:30.333Z,100.00
